sensor_id;sensor_type;location;lat;lon;timestamp;P1;durP1;ratioP1;P2;durP2;ratioP2
6109;SDS011;3085;49.444;11.054;2023-04-08T00:01:13;16.77;;;7.97;;
6109;SDS011;3085;49.444;11.054;2023-04-08T00:03:39;22.63;;;7.87;;
6109;SDS011;3085;49.444;11.054;2023-04-08T00:06:06;13.30;;;8.30;;
6109;SDS011;3085;49.444;11.054;2023-04-08T00:08:33;11.40;;;7.10;;
6109;SDS011;3085;49.444;11.054;2023-04-08T00:11:00;17.93;;;7.40;;
6109;SDS011;3085;49.444;11.054;2023-04-08T00:13:29;13.83;;;6.60;;
6109;SDS011;3085;49.444;11.054;2023-04-08T00:15:57;12.50;;;6.90;;
6109;SDS011;3085;49.444;11.054;2023-04-08T00:18:24;11.07;;;6.30;;
6109;SDS011;3085;49.444;11.054;2023-04-08T00:20:52;15.30;;;8.73;;
6109;SDS011;3085;49.444;11.054;2023-04-08T00:23:19;12.47;;;7.00;;
6109;SDS011;3085;49.444;11.054;2023-04-08T00:25:46;14.93;;;8.00;;
6109;SDS011;3085;49.444;11.054;2023-04-08T00:28:13;14.97;;;6.80;;
6109;SDS011;3085;49.444;11.054;2023-04-08T00:30:40;19.77;;;7.63;;
6109;SDS011;3085;49.444;11.054;2023-04-08T00:33:08;15.50;;;7.47;;
6109;SDS011;3085;49.444;11.054;2023-04-08T00:35:35;19.97;;;7.60;;
6109;SDS011;3085;49.444;11.054;2023-04-08T00:38:01;15.17;;;7.70;;
6109;SDS011;3085;49.444;11.054;2023-04-08T00:40:32;13.47;;;7.53;;
6109;SDS011;3085;49.444;11.054;2023-04-08T00:43:00;12.50;;;6.80;;
6109;SDS011;3085;49.444;11.054;2023-04-08T00:45:26;14.40;;;8.20;;
6109;SDS011;3085;49.444;11.054;2023-04-08T00:47:53;15.73;;;7.20;;
6109;SDS011;3085;49.444;11.054;2023-04-08T00:50:22;13.70;;;6.83;;
6109;SDS011;3085;49.444;11.054;2023-04-08T00:52:49;10.33;;;6.53;;
6109;SDS011;3085;49.444;11.054;2023-04-08T00:55:16;16.80;;;8.30;;
6109;SDS011;3085;49.444;11.054;2023-04-08T00:57:43;14.00;;;7.73;;
6109;SDS011;3085;49.444;11.054;2023-04-08T01:00:11;15.97;;;7.27;;
6109;SDS011;3085;49.444;11.054;2023-04-08T01:02:41;11.87;;;6.63;;
6109;SDS011;3085;49.444;11.054;2023-04-08T01:05:13;10.80;;;7.10;;
6109;SDS011;3085;49.444;11.054;2023-04-08T01:07:48;15.33;;;7.30;;
6109;SDS011;3085;49.444;11.054;2023-04-08T01:10:16;12.60;;;7.00;;
6109;SDS011;3085;49.444;11.054;2023-04-08T01:12:47;12.90;;;6.83;;
6109;SDS011;3085;49.444;11.054;2023-04-08T01:15:16;11.93;;;6.97;;
6109;SDS011;3085;49.444;11.054;2023-04-08T01:17:44;15.50;;;7.43;;
6109;SDS011;3085;49.444;11.054;2023-04-08T01:20:12;10.53;;;6.07;;
6109;SDS011;3085;49.444;11.054;2023-04-08T01:22:43;12.27;;;6.93;;
6109;SDS011;3085;49.444;11.054;2023-04-08T01:25:21;10.27;;;6.70;;
6109;SDS011;3085;49.444;11.054;2023-04-08T01:27:52;14.30;;;6.63;;
6109;SDS011;3085;49.444;11.054;2023-04-08T01:30:21;12.60;;;7.43;;
6109;SDS011;3085;49.444;11.054;2023-04-08T01:32:50;12.70;;;7.00;;
6109;SDS011;3085;49.444;11.054;2023-04-08T01:35:19;12.10;;;7.20;;
6109;SDS011;3085;49.444;11.054;2023-04-08T01:37:46;15.57;;;7.60;;
6109;SDS011;3085;49.444;11.054;2023-04-08T01:40:16;15.63;;;7.10;;
6109;SDS011;3085;49.444;11.054;2023-04-08T01:42:43;11.27;;;6.73;;
6109;SDS011;3085;49.444;11.054;2023-04-08T01:45:13;15.43;;;6.40;;
6109;SDS011;3085;49.444;11.054;2023-04-08T01:47:42;13.03;;;7.53;;
6109;SDS011;3085;49.444;11.054;2023-04-08T01:50:12;14.33;;;6.33;;
6109;SDS011;3085;49.444;11.054;2023-04-08T01:52:40;16.87;;;7.03;;
6109;SDS011;3085;49.444;11.054;2023-04-08T01:55:09;11.23;;;6.57;;
6109;SDS011;3085;49.444;11.054;2023-04-08T01:57:37;20.60;;;7.30;;
6109;SDS011;3085;49.444;11.054;2023-04-08T02:00:05;14.10;;;7.33;;
6109;SDS011;3085;49.444;11.054;2023-04-08T02:02:35;14.07;;;7.23;;
6109;SDS011;3085;49.444;11.054;2023-04-08T02:05:04;16.27;;;7.80;;
6109;SDS011;3085;49.444;11.054;2023-04-08T02:07:31;14.00;;;6.50;;
6109;SDS011;3085;49.444;11.054;2023-04-08T02:09:58;14.87;;;7.67;;
6109;SDS011;3085;49.444;11.054;2023-04-08T02:12:24;8.17;;;5.90;;
6109;SDS011;3085;49.444;11.054;2023-04-08T02:14:53;13.87;;;7.23;;
6109;SDS011;3085;49.444;11.054;2023-04-08T02:17:24;14.67;;;7.67;;
6109;SDS011;3085;49.444;11.054;2023-04-08T02:19:57;15.60;;;7.90;;
6109;SDS011;3085;49.444;11.054;2023-04-08T02:22:30;11.00;;;7.57;;
6109;SDS011;3085;49.444;11.054;2023-04-08T02:25:03;14.33;;;7.43;;
6109;SDS011;3085;49.444;11.054;2023-04-08T02:27:34;14.40;;;6.93;;
6109;SDS011;3085;49.444;11.054;2023-04-08T02:30:02;9.47;;;6.90;;
6109;SDS011;3085;49.444;11.054;2023-04-08T02:32:31;11.73;;;7.00;;
6109;SDS011;3085;49.444;11.054;2023-04-08T02:35:01;13.67;;;6.97;;
6109;SDS011;3085;49.444;11.054;2023-04-08T02:37:29;13.13;;;6.97;;
6109;SDS011;3085;49.444;11.054;2023-04-08T02:39:56;17.40;;;8.27;;
6109;SDS011;3085;49.444;11.054;2023-04-08T02:42:23;17.60;;;7.27;;
6109;SDS011;3085;49.444;11.054;2023-04-08T02:44:50;13.00;;;6.97;;
6109;SDS011;3085;49.444;11.054;2023-04-08T02:47:17;11.90;;;7.30;;
6109;SDS011;3085;49.444;11.054;2023-04-08T02:49:43;12.57;;;7.00;;
6109;SDS011;3085;49.444;11.054;2023-04-08T02:52:11;14.80;;;7.20;;
6109;SDS011;3085;49.444;11.054;2023-04-08T02:54:38;16.97;;;7.90;;
6109;SDS011;3085;49.444;11.054;2023-04-08T02:57:05;10.77;;;6.80;;
6109;SDS011;3085;49.444;11.054;2023-04-08T02:59:31;20.40;;;7.53;;
6109;SDS011;3085;49.444;11.054;2023-04-08T03:02:01;14.20;;;7.50;;
6109;SDS011;3085;49.444;11.054;2023-04-08T03:04:28;14.60;;;7.83;;
6109;SDS011;3085;49.444;11.054;2023-04-08T03:06:55;14.30;;;7.90;;
6109;SDS011;3085;49.444;11.054;2023-04-08T03:09:23;12.50;;;7.07;;
6109;SDS011;3085;49.444;11.054;2023-04-08T03:11:49;15.47;;;7.70;;
6109;SDS011;3085;49.444;11.054;2023-04-08T03:14:19;20.37;;;7.70;;
6109;SDS011;3085;49.444;11.054;2023-04-08T03:16:45;11.50;;;6.77;;
6109;SDS011;3085;49.444;11.054;2023-04-08T03:19:12;16.47;;;8.33;;
6109;SDS011;3085;49.444;11.054;2023-04-08T03:21:39;16.97;;;8.87;;
6109;SDS011;3085;49.444;11.054;2023-04-08T03:24:06;12.43;;;7.23;;
6109;SDS011;3085;49.444;11.054;2023-04-08T03:26:34;17.20;;;7.53;;
6109;SDS011;3085;49.444;11.054;2023-04-08T03:29:00;14.17;;;7.27;;
6109;SDS011;3085;49.444;11.054;2023-04-08T03:31:27;13.87;;;7.33;;
6109;SDS011;3085;49.444;11.054;2023-04-08T03:33:54;13.57;;;7.77;;
6109;SDS011;3085;49.444;11.054;2023-04-08T03:36:21;17.10;;;8.57;;
6109;SDS011;3085;49.444;11.054;2023-04-08T03:38:48;14.43;;;6.80;;
6109;SDS011;3085;49.444;11.054;2023-04-08T03:41:14;21.60;;;7.57;;
6109;SDS011;3085;49.444;11.054;2023-04-08T03:43:42;13.60;;;8.00;;
6109;SDS011;3085;49.444;11.054;2023-04-08T03:46:09;12.07;;;7.10;;
6109;SDS011;3085;49.444;11.054;2023-04-08T03:48:36;19.50;;;8.30;;
6109;SDS011;3085;49.444;11.054;2023-04-08T03:51:03;11.17;;;7.10;;
6109;SDS011;3085;49.444;11.054;2023-04-08T03:53:29;10.97;;;7.23;;
6109;SDS011;3085;49.444;11.054;2023-04-08T03:55:56;16.30;;;8.30;;
6109;SDS011;3085;49.444;11.054;2023-04-08T03:58:26;11.43;;;7.00;;
6109;SDS011;3085;49.444;11.054;2023-04-08T04:00:54;17.40;;;7.80;;
6109;SDS011;3085;49.444;11.054;2023-04-08T04:03:21;15.50;;;7.00;;
6109;SDS011;3085;49.444;11.054;2023-04-08T04:05:48;13.90;;;7.50;;
6109;SDS011;3085;49.444;11.054;2023-04-08T04:08:15;13.53;;;6.60;;
6109;SDS011;3085;49.444;11.054;2023-04-08T04:10:42;18.10;;;7.67;;
6109;SDS011;3085;49.444;11.054;2023-04-08T04:13:09;11.20;;;6.60;;
6109;SDS011;3085;49.444;11.054;2023-04-08T04:15:36;17.37;;;8.70;;
6109;SDS011;3085;49.444;11.054;2023-04-08T04:18:06;13.33;;;6.90;;
6109;SDS011;3085;49.444;11.054;2023-04-08T04:20:33;11.53;;;7.70;;
6109;SDS011;3085;49.444;11.054;2023-04-08T04:23:00;14.30;;;7.20;;
6109;SDS011;3085;49.444;11.054;2023-04-08T04:25:27;12.43;;;7.83;;
6109;SDS011;3085;49.444;11.054;2023-04-08T04:27:53;12.40;;;7.20;;
6109;SDS011;3085;49.444;11.054;2023-04-08T04:30:20;14.10;;;7.63;;
6109;SDS011;3085;49.444;11.054;2023-04-08T04:32:47;14.40;;;6.93;;
6109;SDS011;3085;49.444;11.054;2023-04-08T04:35:15;12.40;;;7.47;;
6109;SDS011;3085;49.444;11.054;2023-04-08T04:37:41;16.90;;;6.60;;
6109;SDS011;3085;49.444;11.054;2023-04-08T04:40:08;10.10;;;6.93;;
6109;SDS011;3085;49.444;11.054;2023-04-08T04:42:35;17.47;;;8.30;;
6109;SDS011;3085;49.444;11.054;2023-04-08T04:45:02;25.10;;;7.27;;
6109;SDS011;3085;49.444;11.054;2023-04-08T04:47:29;13.60;;;7.70;;
6109;SDS011;3085;49.444;11.054;2023-04-08T04:49:56;15.13;;;7.80;;
6109;SDS011;3085;49.444;11.054;2023-04-08T04:52:25;13.90;;;6.80;;
6109;SDS011;3085;49.444;11.054;2023-04-08T04:54:51;14.17;;;7.27;;
6109;SDS011;3085;49.444;11.054;2023-04-08T04:57:18;14.40;;;7.70;;
6109;SDS011;3085;49.444;11.054;2023-04-08T04:59:45;12.60;;;6.80;;
6109;SDS011;3085;49.444;11.054;2023-04-08T05:02:12;14.70;;;8.63;;
6109;SDS011;3085;49.444;11.054;2023-04-08T05:04:38;12.33;;;6.37;;
6109;SDS011;3085;49.444;11.054;2023-04-08T05:07:05;13.90;;;6.70;;
6109;SDS011;3085;49.444;11.054;2023-04-08T05:09:33;17.10;;;7.70;;
6109;SDS011;3085;49.444;11.054;2023-04-08T05:12:00;17.17;;;7.00;;
6109;SDS011;3085;49.444;11.054;2023-04-08T05:14:27;11.97;;;6.70;;
6109;SDS011;3085;49.444;11.054;2023-04-08T05:16:54;18.70;;;7.60;;
6109;SDS011;3085;49.444;11.054;2023-04-08T05:19:21;13.20;;;7.90;;
6109;SDS011;3085;49.444;11.054;2023-04-08T05:21:48;15.37;;;7.97;;
6109;SDS011;3085;49.444;11.054;2023-04-08T05:24:14;14.73;;;7.40;;
6109;SDS011;3085;49.444;11.054;2023-04-08T05:26:42;12.47;;;6.93;;
6109;SDS011;3085;49.444;11.054;2023-04-08T05:29:09;13.70;;;7.90;;
6109;SDS011;3085;49.444;11.054;2023-04-08T05:31:36;17.90;;;8.03;;
6109;SDS011;3085;49.444;11.054;2023-04-08T05:34:03;12.80;;;6.80;;
6109;SDS011;3085;49.444;11.054;2023-04-08T05:36:30;12.20;;;6.63;;
6109;SDS011;3085;49.444;11.054;2023-04-08T05:38:56;14.83;;;7.20;;
6109;SDS011;3085;49.444;11.054;2023-04-08T05:41:23;11.60;;;7.50;;
6109;SDS011;3085;49.444;11.054;2023-04-08T05:43:51;12.37;;;6.77;;
6109;SDS011;3085;49.444;11.054;2023-04-08T05:46:18;10.40;;;6.40;;
6109;SDS011;3085;49.444;11.054;2023-04-08T05:48:45;9.37;;;6.20;;
6109;SDS011;3085;49.444;11.054;2023-04-08T05:51:12;13.27;;;6.80;;
6109;SDS011;3085;49.444;11.054;2023-04-08T05:53:39;14.50;;;7.23;;
6109;SDS011;3085;49.444;11.054;2023-04-08T05:56:06;9.50;;;5.93;;
6109;SDS011;3085;49.444;11.054;2023-04-08T05:58:33;8.50;;;5.83;;
6109;SDS011;3085;49.444;11.054;2023-04-08T06:01:01;10.60;;;6.33;;
6109;SDS011;3085;49.444;11.054;2023-04-08T06:03:30;13.17;;;5.60;;
6109;SDS011;3085;49.444;11.054;2023-04-08T06:05:57;8.50;;;5.63;;
6109;SDS011;3085;49.444;11.054;2023-04-08T06:08:23;16.13;;;5.13;;
6109;SDS011;3085;49.444;11.054;2023-04-08T06:10:50;7.70;;;5.23;;
6109;SDS011;3085;49.444;11.054;2023-04-08T06:13:17;14.67;;;6.17;;
6109;SDS011;3085;49.444;11.054;2023-04-08T06:15:45;11.70;;;5.73;;
6109;SDS011;3085;49.444;11.054;2023-04-08T06:18:14;10.33;;;5.70;;
6109;SDS011;3085;49.444;11.054;2023-04-08T06:20:41;7.60;;;4.43;;
6109;SDS011;3085;49.444;11.054;2023-04-08T06:23:08;16.33;;;5.53;;
6109;SDS011;3085;49.444;11.054;2023-04-08T06:25:35;9.70;;;5.47;;
6109;SDS011;3085;49.444;11.054;2023-04-08T06:28:02;7.47;;;4.60;;
6109;SDS011;3085;49.444;11.054;2023-04-08T06:30:28;10.87;;;5.30;;
6109;SDS011;3085;49.444;11.054;2023-04-08T06:32:55;6.20;;;4.00;;
6109;SDS011;3085;49.444;11.054;2023-04-08T06:35:23;9.30;;;5.20;;
6109;SDS011;3085;49.444;11.054;2023-04-08T06:37:51;14.87;;;4.87;;
6109;SDS011;3085;49.444;11.054;2023-04-08T06:40:18;7.47;;;4.27;;
6109;SDS011;3085;49.444;11.054;2023-04-08T06:42:45;8.47;;;4.97;;
6109;SDS011;3085;49.444;11.054;2023-04-08T06:45:12;6.60;;;4.07;;
6109;SDS011;3085;49.444;11.054;2023-04-08T06:47:39;7.30;;;4.67;;
6109;SDS011;3085;49.444;11.054;2023-04-08T06:50:07;7.33;;;4.73;;
6109;SDS011;3085;49.444;11.054;2023-04-08T06:52:35;11.60;;;4.13;;
6109;SDS011;3085;49.444;11.054;2023-04-08T06:55:02;5.73;;;4.07;;
6109;SDS011;3085;49.444;11.054;2023-04-08T06:57:29;5.73;;;4.10;;
6109;SDS011;3085;49.444;11.054;2023-04-08T06:59:56;6.97;;;4.43;;
6109;SDS011;3085;49.444;11.054;2023-04-08T07:02:24;7.10;;;4.57;;
6109;SDS011;3085;49.444;11.054;2023-04-08T07:04:51;8.87;;;5.10;;
6109;SDS011;3085;49.444;11.054;2023-04-08T07:07:18;8.57;;;4.93;;
6109;SDS011;3085;49.444;11.054;2023-04-08T07:09:46;8.07;;;4.40;;
6109;SDS011;3085;49.444;11.054;2023-04-08T07:12:13;8.03;;;4.57;;
6109;SDS011;3085;49.444;11.054;2023-04-08T07:14:40;8.40;;;4.77;;
6109;SDS011;3085;49.444;11.054;2023-04-08T07:17:06;7.10;;;4.20;;
6109;SDS011;3085;49.444;11.054;2023-04-08T07:19:33;12.10;;;4.53;;
6109;SDS011;3085;49.444;11.054;2023-04-08T07:22:00;5.80;;;4.00;;
6109;SDS011;3085;49.444;11.054;2023-04-08T07:24:27;6.40;;;4.43;;
6109;SDS011;3085;49.444;11.054;2023-04-08T07:26:55;5.63;;;3.33;;
6109;SDS011;3085;49.444;11.054;2023-04-08T07:29:22;5.23;;;3.93;;
6109;SDS011;3085;49.444;11.054;2023-04-08T07:31:49;8.73;;;5.17;;
6109;SDS011;3085;49.444;11.054;2023-04-08T07:34:16;9.30;;;4.07;;
6109;SDS011;3085;49.444;11.054;2023-04-08T07:36:43;6.97;;;4.07;;
6109;SDS011;3085;49.444;11.054;2023-04-08T07:39:09;8.13;;;3.83;;
6109;SDS011;3085;49.444;11.054;2023-04-08T07:41:36;6.67;;;4.30;;
6109;SDS011;3085;49.444;11.054;2023-04-08T07:44:04;5.30;;;4.50;;
6109;SDS011;3085;49.444;11.054;2023-04-08T07:46:34;6.20;;;3.93;;
6109;SDS011;3085;49.444;11.054;2023-04-08T07:49:02;9.23;;;4.77;;
6109;SDS011;3085;49.444;11.054;2023-04-08T07:51:28;8.20;;;4.83;;
6109;SDS011;3085;49.444;11.054;2023-04-08T07:53:55;8.47;;;4.37;;
6109;SDS011;3085;49.444;11.054;2023-04-08T07:56:22;5.50;;;4.03;;
6109;SDS011;3085;49.444;11.054;2023-04-08T07:58:49;5.97;;;4.00;;
6109;SDS011;3085;49.444;11.054;2023-04-08T08:01:17;9.13;;;5.73;;
6109;SDS011;3085;49.444;11.054;2023-04-08T08:03:46;11.23;;;5.53;;
6109;SDS011;3085;49.444;11.054;2023-04-08T08:06:12;11.23;;;5.97;;
6109;SDS011;3085;49.444;11.054;2023-04-08T08:08:39;12.67;;;6.33;;
6109;SDS011;3085;49.444;11.054;2023-04-08T08:11:06;9.50;;;5.00;;
6109;SDS011;3085;49.444;11.054;2023-04-08T08:13:33;11.90;;;6.43;;
6109;SDS011;3085;49.444;11.054;2023-04-08T08:16:00;12.20;;;6.17;;
6109;SDS011;3085;49.444;11.054;2023-04-08T08:18:28;12.57;;;6.27;;
6109;SDS011;3085;49.444;11.054;2023-04-08T08:20:55;12.20;;;5.60;;
6109;SDS011;3085;49.444;11.054;2023-04-08T08:23:21;11.07;;;5.87;;
6109;SDS011;3085;49.444;11.054;2023-04-08T08:25:48;12.80;;;5.87;;
6109;SDS011;3085;49.444;11.054;2023-04-08T08:28:15;9.80;;;5.43;;
6109;SDS011;3085;49.444;11.054;2023-04-08T08:30:42;12.63;;;6.50;;
6109;SDS011;3085;49.444;11.054;2023-04-08T08:33:09;9.70;;;5.40;;
6109;SDS011;3085;49.444;11.054;2023-04-08T08:35:37;9.90;;;6.07;;
6109;SDS011;3085;49.444;11.054;2023-04-08T08:38:03;7.87;;;5.73;;
6109;SDS011;3085;49.444;11.054;2023-04-08T08:40:31;10.00;;;6.70;;
6109;SDS011;3085;49.444;11.054;2023-04-08T08:42:58;16.60;;;6.40;;
6109;SDS011;3085;49.444;11.054;2023-04-08T08:45:25;10.30;;;5.20;;
6109;SDS011;3085;49.444;11.054;2023-04-08T08:47:52;8.50;;;5.67;;
6109;SDS011;3085;49.444;11.054;2023-04-08T08:50:19;7.73;;;5.10;;
6109;SDS011;3085;49.444;11.054;2023-04-08T08:52:51;12.13;;;5.30;;
6109;SDS011;3085;49.444;11.054;2023-04-08T08:55:18;14.47;;;6.37;;
6109;SDS011;3085;49.444;11.054;2023-04-08T08:57:48;10.80;;;5.73;;
6109;SDS011;3085;49.444;11.054;2023-04-08T09:00:15;8.30;;;5.20;;
6109;SDS011;3085;49.444;11.054;2023-04-08T09:02:43;11.30;;;4.90;;
6109;SDS011;3085;49.444;11.054;2023-04-08T09:05:10;9.07;;;5.57;;
6109;SDS011;3085;49.444;11.054;2023-04-08T09:07:37;8.83;;;6.77;;
6109;SDS011;3085;49.444;11.054;2023-04-08T09:10:07;8.80;;;4.80;;
6109;SDS011;3085;49.444;11.054;2023-04-08T09:12:34;7.07;;;4.33;;
6109;SDS011;3085;49.444;11.054;2023-04-08T09:15:17;12.70;;;6.03;;
6109;SDS011;3085;49.444;11.054;2023-04-08T09:17:44;9.83;;;4.73;;
6109;SDS011;3085;49.444;11.054;2023-04-08T09:20:11;10.63;;;5.47;;
6109;SDS011;3085;49.444;11.054;2023-04-08T09:22:55;9.90;;;5.30;;
6109;SDS011;3085;49.444;11.054;2023-04-08T09:25:24;9.73;;;5.70;;
6109;SDS011;3085;49.444;11.054;2023-04-08T09:27:52;11.03;;;5.57;;
6109;SDS011;3085;49.444;11.054;2023-04-08T09:30:20;8.77;;;4.90;;
6109;SDS011;3085;49.444;11.054;2023-04-08T09:32:48;7.77;;;5.17;;
6109;SDS011;3085;49.444;11.054;2023-04-08T09:35:17;8.40;;;4.73;;
6109;SDS011;3085;49.444;11.054;2023-04-08T09:37:44;11.13;;;5.73;;
6109;SDS011;3085;49.444;11.054;2023-04-08T09:40:15;9.93;;;6.07;;
6109;SDS011;3085;49.444;11.054;2023-04-08T09:42:44;9.83;;;6.60;;
6109;SDS011;3085;49.444;11.054;2023-04-08T09:45:14;10.30;;;6.17;;
6109;SDS011;3085;49.444;11.054;2023-04-08T09:47:43;10.57;;;5.00;;
6109;SDS011;3085;49.444;11.054;2023-04-08T09:50:23;8.30;;;5.87;;
6109;SDS011;3085;49.444;11.054;2023-04-08T09:52:56;8.87;;;5.37;;
6109;SDS011;3085;49.444;11.054;2023-04-08T09:55:27;11.17;;;5.90;;
6109;SDS011;3085;49.444;11.054;2023-04-08T09:58:02;7.37;;;5.20;;
6109;SDS011;3085;49.444;11.054;2023-04-08T10:00:35;10.63;;;5.40;;
6109;SDS011;3085;49.444;11.054;2023-04-08T10:03:06;8.90;;;5.83;;
6109;SDS011;3085;49.444;11.054;2023-04-08T10:05:36;11.50;;;6.00;;
6109;SDS011;3085;49.444;11.054;2023-04-08T10:08:06;12.03;;;6.23;;
6109;SDS011;3085;49.444;11.054;2023-04-08T10:10:33;11.73;;;6.40;;
6109;SDS011;3085;49.444;11.054;2023-04-08T10:13:02;13.40;;;6.53;;
6109;SDS011;3085;49.444;11.054;2023-04-08T10:15:29;8.30;;;5.00;;
6109;SDS011;3085;49.444;11.054;2023-04-08T10:20:58;7.80;;;5.23;;
6109;SDS011;3085;49.444;11.054;2023-04-08T10:26:29;11.07;;;6.17;;
6109;SDS011;3085;49.444;11.054;2023-04-08T10:29:30;9.80;;;6.40;;
6109;SDS011;3085;49.444;11.054;2023-04-08T10:31:58;10.40;;;5.00;;
6109;SDS011;3085;49.444;11.054;2023-04-08T10:34:25;8.83;;;5.17;;
6109;SDS011;3085;49.444;11.054;2023-04-08T10:36:53;9.23;;;6.40;;
6109;SDS011;3085;49.444;11.054;2023-04-08T10:39:23;11.87;;;6.80;;
6109;SDS011;3085;49.444;11.054;2023-04-08T10:41:51;8.63;;;5.33;;
6109;SDS011;3085;49.444;11.054;2023-04-08T10:44:18;10.50;;;6.13;;
6109;SDS011;3085;49.444;11.054;2023-04-08T10:46:47;14.90;;;7.17;;
6109;SDS011;3085;49.444;11.054;2023-04-08T10:49:15;10.60;;;6.33;;
6109;SDS011;3085;49.444;11.054;2023-04-08T10:51:43;9.40;;;4.90;;
6109;SDS011;3085;49.444;11.054;2023-04-08T10:54:11;10.17;;;6.23;;
6109;SDS011;3085;49.444;11.054;2023-04-08T10:56:45;8.40;;;5.10;;
6109;SDS011;3085;49.444;11.054;2023-04-08T10:59:14;10.10;;;5.47;;
6109;SDS011;3085;49.444;11.054;2023-04-08T11:01:43;10.67;;;6.10;;
6109;SDS011;3085;49.444;11.054;2023-04-08T11:04:13;8.73;;;5.87;;
6109;SDS011;3085;49.444;11.054;2023-04-08T11:06:42;12.00;;;7.00;;
6109;SDS011;3085;49.444;11.054;2023-04-08T11:09:10;10.70;;;6.10;;
6109;SDS011;3085;49.444;11.054;2023-04-08T11:11:36;8.40;;;5.90;;
6109;SDS011;3085;49.444;11.054;2023-04-08T11:14:04;10.30;;;7.17;;
6109;SDS011;3085;49.444;11.054;2023-04-08T11:16:31;15.40;;;7.60;;
6109;SDS011;3085;49.444;11.054;2023-04-08T11:19:00;10.23;;;6.13;;
6109;SDS011;3085;49.444;11.054;2023-04-08T11:21:30;7.77;;;5.10;;
6109;SDS011;3085;49.444;11.054;2023-04-08T11:23:57;7.17;;;5.30;;
6109;SDS011;3085;49.444;11.054;2023-04-08T11:26:24;9.00;;;5.50;;
6109;SDS011;3085;49.444;11.054;2023-04-08T11:28:52;10.77;;;5.40;;
6109;SDS011;3085;49.444;11.054;2023-04-08T11:31:20;9.53;;;6.30;;
6109;SDS011;3085;49.444;11.054;2023-04-08T11:33:47;9.73;;;5.90;;
6109;SDS011;3085;49.444;11.054;2023-04-08T11:36:16;8.90;;;5.60;;
6109;SDS011;3085;49.444;11.054;2023-04-08T11:38:47;9.13;;;5.60;;
6109;SDS011;3085;49.444;11.054;2023-04-08T11:41:13;7.53;;;5.47;;
6109;SDS011;3085;49.444;11.054;2023-04-08T11:43:50;8.20;;;5.03;;
6109;SDS011;3085;49.444;11.054;2023-04-08T11:46:18;7.73;;;4.87;;
6109;SDS011;3085;49.444;11.054;2023-04-08T11:48:58;9.07;;;5.80;;
6109;SDS011;3085;49.444;11.054;2023-04-08T11:51:26;14.77;;;6.10;;
6109;SDS011;3085;49.444;11.054;2023-04-08T11:53:54;8.90;;;4.70;;
6109;SDS011;3085;49.444;11.054;2023-04-08T11:56:21;7.67;;;4.77;;
6109;SDS011;3085;49.444;11.054;2023-04-08T11:58:49;9.13;;;4.73;;
6109;SDS011;3085;49.444;11.054;2023-04-08T12:01:16;8.80;;;5.70;;
6109;SDS011;3085;49.444;11.054;2023-04-08T12:03:56;10.67;;;6.10;;
6109;SDS011;3085;49.444;11.054;2023-04-08T12:06:24;8.93;;;4.77;;
6109;SDS011;3085;49.444;11.054;2023-04-08T12:08:53;9.67;;;5.70;;
6109;SDS011;3085;49.444;11.054;2023-04-08T12:11:21;9.27;;;5.73;;
6109;SDS011;3085;49.444;11.054;2023-04-08T12:13:49;8.60;;;5.23;;
6109;SDS011;3085;49.444;11.054;2023-04-08T12:16:16;7.63;;;4.50;;
6109;SDS011;3085;49.444;11.054;2023-04-08T12:18:44;10.37;;;5.00;;
6109;SDS011;3085;49.444;11.054;2023-04-08T12:21:11;9.40;;;5.50;;
6109;SDS011;3085;49.444;11.054;2023-04-08T12:23:38;7.17;;;4.50;;
6109;SDS011;3085;49.444;11.054;2023-04-08T12:26:06;9.93;;;5.13;;
6109;SDS011;3085;49.444;11.054;2023-04-08T12:28:33;8.70;;;4.60;;
6109;SDS011;3085;49.444;11.054;2023-04-08T12:31:00;6.70;;;4.53;;
6109;SDS011;3085;49.444;11.054;2023-04-08T12:33:27;6.73;;;4.30;;
6109;SDS011;3085;49.444;11.054;2023-04-08T12:35:54;6.50;;;4.23;;
6109;SDS011;3085;49.444;11.054;2023-04-08T12:38:22;7.57;;;4.70;;
6109;SDS011;3085;49.444;11.054;2023-04-08T12:40:48;8.97;;;4.97;;
6109;SDS011;3085;49.444;11.054;2023-04-08T12:43:16;8.97;;;4.83;;
6109;SDS011;3085;49.444;11.054;2023-04-08T12:45:43;9.30;;;4.73;;
6109;SDS011;3085;49.444;11.054;2023-04-08T12:48:10;4.97;;;3.77;;
6109;SDS011;3085;49.444;11.054;2023-04-08T12:50:37;8.27;;;5.00;;
6109;SDS011;3085;49.444;11.054;2023-04-08T12:53:04;9.37;;;5.20;;
6109;SDS011;3085;49.444;11.054;2023-04-08T12:55:30;8.80;;;4.53;;
6109;SDS011;3085;49.444;11.054;2023-04-08T12:57:58;9.30;;;5.67;;
6109;SDS011;3085;49.444;11.054;2023-04-08T13:00:26;15.23;;;4.30;;
6109;SDS011;3085;49.444;11.054;2023-04-08T13:02:53;8.60;;;5.00;;
6109;SDS011;3085;49.444;11.054;2023-04-08T13:05:19;8.67;;;4.80;;
6109;SDS011;3085;49.444;11.054;2023-04-08T13:07:46;9.63;;;5.03;;
6109;SDS011;3085;49.444;11.054;2023-04-08T13:10:13;5.07;;;3.70;;
6109;SDS011;3085;49.444;11.054;2023-04-08T13:12:40;8.00;;;4.70;;
6109;SDS011;3085;49.444;11.054;2023-04-08T13:15:07;9.17;;;4.90;;
6109;SDS011;3085;49.444;11.054;2023-04-08T13:17:36;8.40;;;4.67;;
6109;SDS011;3085;49.444;11.054;2023-04-08T13:20:03;7.33;;;4.13;;
6109;SDS011;3085;49.444;11.054;2023-04-08T13:22:32;8.00;;;4.57;;
6109;SDS011;3085;49.444;11.054;2023-04-08T13:24:59;6.97;;;4.60;;
6109;SDS011;3085;49.444;11.054;2023-04-08T13:27:26;10.20;;;5.27;;
6109;SDS011;3085;49.444;11.054;2023-04-08T13:29:53;6.03;;;4.30;;
6109;SDS011;3085;49.444;11.054;2023-04-08T13:32:20;6.60;;;4.00;;
6109;SDS011;3085;49.444;11.054;2023-04-08T13:34:48;7.43;;;4.60;;
6109;SDS011;3085;49.444;11.054;2023-04-08T13:37:15;4.87;;;3.60;;
6109;SDS011;3085;49.444;11.054;2023-04-08T13:39:41;5.20;;;3.60;;
6109;SDS011;3085;49.444;11.054;2023-04-08T13:42:08;7.30;;;4.20;;
6109;SDS011;3085;49.444;11.054;2023-04-08T13:44:35;5.40;;;3.47;;
6109;SDS011;3085;49.444;11.054;2023-04-08T13:47:02;5.50;;;3.90;;
6109;SDS011;3085;49.444;11.054;2023-04-08T13:49:28;6.60;;;3.80;;
6109;SDS011;3085;49.444;11.054;2023-04-08T13:51:56;7.40;;;3.30;;
6109;SDS011;3085;49.444;11.054;2023-04-08T13:54:23;7.27;;;3.23;;
6109;SDS011;3085;49.444;11.054;2023-04-08T13:56:50;5.17;;;3.37;;
6109;SDS011;3085;49.444;11.054;2023-04-08T13:59:17;10.63;;;3.87;;
6109;SDS011;3085;49.444;11.054;2023-04-08T14:01:43;5.80;;;3.20;;
6109;SDS011;3085;49.444;11.054;2023-04-08T14:04:10;5.73;;;3.70;;
6109;SDS011;3085;49.444;11.054;2023-04-08T14:06:37;9.43;;;5.00;;
6109;SDS011;3085;49.444;11.054;2023-04-08T14:09:06;4.27;;;3.23;;
6109;SDS011;3085;49.444;11.054;2023-04-08T14:11:32;4.87;;;3.17;;
6109;SDS011;3085;49.444;11.054;2023-04-08T14:13:59;9.00;;;3.60;;
6109;SDS011;3085;49.444;11.054;2023-04-08T14:16:26;7.50;;;4.10;;
6109;SDS011;3085;49.444;11.054;2023-04-08T14:18:54;3.80;;;2.53;;
6109;SDS011;3085;49.444;11.054;2023-04-08T14:21:21;4.90;;;3.30;;
6109;SDS011;3085;49.444;11.054;2023-04-08T14:23:48;4.87;;;3.50;;
6109;SDS011;3085;49.444;11.054;2023-04-08T14:26:18;6.20;;;3.00;;
6109;SDS011;3085;49.444;11.054;2023-04-08T14:28:45;6.33;;;3.37;;
6109;SDS011;3085;49.444;11.054;2023-04-08T14:31:12;4.63;;;2.97;;
6109;SDS011;3085;49.444;11.054;2023-04-08T14:33:39;5.03;;;3.13;;
6109;SDS011;3085;49.444;11.054;2023-04-08T14:36:06;6.13;;;3.00;;
6109;SDS011;3085;49.444;11.054;2023-04-08T14:38:33;4.33;;;3.17;;
6109;SDS011;3085;49.444;11.054;2023-04-08T14:40:59;5.97;;;3.20;;
6109;SDS011;3085;49.444;11.054;2023-04-08T14:43:28;4.57;;;2.70;;
6109;SDS011;3085;49.444;11.054;2023-04-08T14:45:54;5.70;;;3.27;;
6109;SDS011;3085;49.444;11.054;2023-04-08T14:48:21;5.30;;;3.20;;
6109;SDS011;3085;49.444;11.054;2023-04-08T14:50:50;4.83;;;2.67;;
6109;SDS011;3085;49.444;11.054;2023-04-08T14:53:17;7.60;;;3.50;;
6109;SDS011;3085;49.444;11.054;2023-04-08T14:55:43;3.60;;;2.80;;
6109;SDS011;3085;49.444;11.054;2023-04-08T14:58:10;13.07;;;4.50;;
6109;SDS011;3085;49.444;11.054;2023-04-08T15:00:38;5.87;;;3.30;;
6109;SDS011;3085;49.444;11.054;2023-04-08T15:03:08;3.73;;;2.80;;